createdAt,value
2023-02-06T00:01:48.928Z,12.63
2023-02-06T00:04:10.466Z,12.73
2023-02-06T00:06:32.301Z,12.23
2023-02-06T00:08:53.744Z,13.37
2023-02-06T00:11:16.915Z,21.40
2023-02-06T00:13:38.669Z,18.03
2023-02-06T00:16:00.385Z,14.67
2023-02-06T00:18:21.828Z,13.10
2023-02-06T00:20:43.267Z,12.73
2023-02-06T00:23:05.170Z,13.13
2023-02-06T00:25:26.601Z,12.30
2023-02-06T00:27:48.088Z,13.10
2023-02-06T00:30:09.900Z,13.03
2023-02-06T00:32:31.433Z,14.60
2023-02-06T00:34:52.858Z,13.80
2023-02-06T00:37:14.772Z,16.40
2023-02-06T00:39:36.247Z,17.30
2023-02-06T00:41:57.666Z,21.10
2023-02-06T00:44:19.149Z,17.37
2023-02-06T00:46:40.660Z,15.40
2023-02-06T00:49:02.221Z,16.03
2023-02-06T00:51:23.676Z,14.50
2023-02-06T00:53:45.271Z,16.93
2023-02-06T00:56:06.868Z,14.90
2023-02-06T00:58:28.298Z,18.33
2023-02-06T01:00:49.902Z,21.37
2023-02-06T01:03:11.505Z,17.37
2023-02-06T01:05:33.049Z,10.13
2023-02-06T01:07:54.630Z,9.80
2023-02-06T01:10:16.382Z,9.33
2023-02-06T01:12:37.901Z,10.30
2023-02-06T01:14:59.418Z,10.10
2023-02-06T01:17:20.870Z,20.97
2023-02-06T01:19:42.311Z,17.50
2023-02-06T01:22:04.141Z,13.50
2023-02-06T01:24:25.575Z,9.77
2023-02-06T01:26:46.993Z,11.60
2023-02-06T01:29:08.433Z,11.47
2023-02-06T01:31:31.171Z,11.57
2023-02-06T01:33:52.844Z,9.77
2023-02-06T01:36:14.817Z,12.07
2023-02-06T01:38:36.391Z,12.10
2023-02-06T01:40:59.416Z,13.27
2023-02-06T01:43:20.882Z,12.10
2023-02-06T01:45:44.083Z,13.60
2023-02-06T01:48:10.341Z,12.63
2023-02-06T01:50:34.061Z,12.73
2023-02-06T01:52:55.739Z,12.63
2023-02-06T01:55:17.711Z,13.70
2023-02-06T01:57:40.258Z,13.13
2023-02-06T02:00:07.520Z,13.97
2023-02-06T02:02:29.526Z,13.00
2023-02-06T02:04:51.065Z,13.10
2023-02-06T02:07:28.712Z,13.00
2023-02-06T02:09:50.172Z,12.67
2023-02-06T02:12:11.878Z,12.73
2023-02-06T02:14:33.960Z,13.67
2023-02-06T02:17:20.391Z,13.60
2023-02-06T02:20:11.095Z,13.17
2023-02-06T02:22:55.169Z,13.43
2023-02-06T02:25:22.290Z,12.80
2023-02-06T02:28:05.757Z,11.90
2023-02-06T02:30:59.339Z,13.60
2023-02-06T02:33:27.025Z,12.83
2023-02-06T02:35:59.984Z,13.20
2023-02-06T02:38:50.567Z,14.17
2023-02-06T02:41:27.100Z,13.63
2023-02-06T02:44:10.958Z,12.67
2023-02-06T02:46:40.352Z,13.97
2023-02-06T02:49:10.844Z,14.20
2023-02-06T02:51:33.996Z,15.73
2023-02-06T02:53:58.548Z,15.73
2023-02-06T02:56:23.080Z,15.93
2023-02-06T02:58:47.878Z,17.03
2023-02-06T03:01:14.112Z,15.57
2023-02-06T03:03:38.716Z,15.57
2023-02-06T03:06:30.580Z,14.03
2023-02-06T03:09:13.044Z,13.27
2023-02-06T03:11:41.324Z,13.43
2023-02-06T03:14:05.505Z,14.23
2023-02-06T03:16:35.412Z,13.60
2023-02-06T03:19:14.440Z,15.43
2023-02-06T03:21:38.014Z,14.73
2023-02-06T03:24:03.548Z,15.57
2023-02-06T03:26:28.742Z,17.13
2023-02-06T03:28:55.194Z,17.77
2023-02-06T03:31:23.679Z,17.07
2023-02-06T03:33:54.575Z,16.93
2023-02-06T03:36:18.385Z,15.17
2023-02-06T03:38:40.036Z,15.97
2023-02-06T03:41:02.036Z,15.73
2023-02-06T03:43:26.138Z,15.93
2023-02-06T03:45:52.130Z,15.30
2023-02-06T03:48:42.113Z,15.80
2023-02-06T03:51:12.271Z,16.70
2023-02-06T03:53:35.251Z,25.17
2023-02-06T03:56:02.214Z,24.33
2023-02-06T03:58:24.698Z,21.13
2023-02-06T04:00:48.028Z,20.90
2023-02-06T04:03:11.045Z,20.10
2023-02-06T04:05:32.597Z,18.73
2023-02-06T04:07:56.511Z,20.23
2023-02-06T04:10:18.525Z,20.43
2023-02-06T04:12:40.040Z,19.57
2023-02-06T04:15:01.644Z,19.47
2023-02-06T04:17:40.763Z,18.80
2023-02-06T04:20:06.430Z,18.73
2023-02-06T04:22:27.872Z,17.80
2023-02-06T04:24:49.906Z,16.90
2023-02-06T04:27:14.634Z,16.40
2023-02-06T04:29:36.142Z,17.40
2023-02-06T04:32:02.149Z,18.10
2023-02-06T04:34:23.726Z,16.80
2023-02-06T04:36:45.157Z,17.40
2023-02-06T04:39:07.344Z,16.83
2023-02-06T04:41:28.823Z,16.73
2023-02-06T04:43:50.271Z,17.17
2023-02-06T04:46:11.742Z,16.70
2023-02-06T04:48:36.240Z,14.83
2023-02-06T04:50:57.782Z,16.17
2023-02-06T04:53:19.285Z,15.80
2023-02-06T04:55:40.791Z,15.70
2023-02-06T04:58:02.258Z,15.57
2023-02-06T05:00:23.887Z,16.20
2023-02-06T05:02:45.373Z,16.37
2023-02-06T05:05:08.474Z,17.83
2023-02-06T05:07:29.985Z,17.13
2023-02-06T05:09:51.424Z,16.77
2023-02-06T05:12:14.338Z,16.10
2023-02-06T05:14:35.861Z,15.80
2023-02-06T05:16:57.282Z,15.57
2023-02-06T05:19:18.754Z,14.07
2023-02-06T05:21:40.382Z,13.53
2023-02-06T05:24:01.840Z,14.17
2023-02-06T05:26:23.604Z,14.00
2023-02-06T05:28:45.096Z,13.00
2023-02-06T05:31:07.006Z,12.93
2023-02-06T05:33:29.201Z,12.87
2023-02-06T05:35:50.645Z,13.43
2023-02-06T05:38:12.156Z,13.07
2023-02-06T05:40:33.611Z,12.47
2023-02-06T05:42:55.046Z,12.90
2023-02-06T05:45:16.634Z,12.50
2023-02-06T05:47:38.056Z,12.63
2023-02-06T05:49:59.507Z,13.43
2023-02-06T05:52:20.960Z,13.10
2023-02-06T05:54:42.444Z,13.23
2023-02-06T05:57:04.292Z,12.73
2023-02-06T05:59:25.979Z,12.03
2023-02-06T06:01:47.433Z,11.07
2023-02-06T06:04:09.032Z,12.87
2023-02-06T06:06:30.561Z,11.40
2023-02-06T06:08:51.984Z,10.47
2023-02-06T06:11:14.110Z,10.63
2023-02-06T06:13:35.596Z,11.20
2023-02-06T06:15:57.119Z,10.93
2023-02-06T06:18:19.711Z,10.50
2023-02-06T06:20:41.963Z,11.00
2023-02-06T06:23:03.391Z,9.73
2023-02-06T06:25:24.850Z,10.07
2023-02-06T06:27:46.480Z,9.50
2023-02-06T06:30:08.988Z,9.87
2023-02-06T06:32:30.422Z,9.40
2023-02-06T06:34:51.833Z,9.37
2023-02-06T06:37:13.299Z,10.00
2023-02-06T06:39:34.722Z,10.40
2023-02-06T06:41:56.172Z,9.37
2023-02-06T06:44:17.709Z,9.63
2023-02-06T06:46:39.166Z,10.67
2023-02-06T06:49:01.481Z,10.30
2023-02-06T06:51:23.726Z,10.37
2023-02-06T06:53:45.141Z,10.07
2023-02-06T06:56:08.655Z,10.20
2023-02-06T06:58:30.091Z,9.77
2023-02-06T07:00:53.583Z,9.63
2023-02-06T07:03:15.099Z,8.83
2023-02-06T07:05:36.997Z,8.80
2023-02-06T07:07:58.717Z,10.23
2023-02-06T07:10:20.302Z,10.10
2023-02-06T07:12:41.852Z,9.63
2023-02-06T07:15:04.257Z,9.23
2023-02-06T07:17:26.689Z,10.20
2023-02-06T07:19:49.278Z,9.67
2023-02-06T07:22:10.729Z,9.47
2023-02-06T07:24:32.161Z,8.63
2023-02-06T07:26:53.681Z,9.27
2023-02-06T07:29:15.124Z,8.67
2023-02-06T07:31:36.659Z,9.30
2023-02-06T07:33:58.117Z,8.83
2023-02-06T07:36:19.641Z,8.83
2023-02-06T07:38:41.662Z,8.60
2023-02-06T07:41:03.559Z,8.93
2023-02-06T07:43:24.984Z,8.97
2023-02-06T07:45:46.528Z,8.83
2023-02-06T07:48:08.460Z,9.03
2023-02-06T07:50:30.077Z,8.63
2023-02-06T07:52:51.494Z,8.87
2023-02-06T07:55:12.929Z,8.97
2023-02-06T07:57:34.437Z,9.07
2023-02-06T07:59:55.978Z,9.23
2023-02-06T08:02:17.449Z,9.60
2023-02-06T08:04:38.967Z,10.10
2023-02-06T08:07:01.638Z,10.33
2023-02-06T08:09:23.058Z,10.73
2023-02-06T08:11:44.713Z,16.93
2023-02-06T08:14:06.215Z,15.07
2023-02-06T08:16:27.733Z,10.27
2023-02-06T08:18:49.563Z,9.53
2023-02-06T08:21:14.067Z,9.30
2023-02-06T08:23:35.571Z,9.27
2023-02-06T08:26:09.454Z,8.27
2023-02-06T08:28:32.247Z,8.13
2023-02-06T08:30:53.727Z,8.50
2023-02-06T08:33:15.244Z,8.23
2023-02-06T08:35:36.900Z,8.80
2023-02-06T08:37:58.532Z,8.70
2023-02-06T08:40:21.188Z,8.60
2023-02-06T08:42:42.712Z,8.70
2023-02-06T08:45:04.722Z,8.73
2023-02-06T08:47:26.208Z,8.40
2023-02-06T08:49:50.692Z,8.97
2023-02-06T08:52:12.224Z,8.63
2023-02-06T08:54:35.947Z,8.60
2023-02-06T08:57:01.003Z,8.60
2023-02-06T08:59:22.788Z,8.13
2023-02-06T09:01:45.691Z,7.80
2023-02-06T09:04:09.894Z,7.90
2023-02-06T09:06:31.378Z,7.80
2023-02-06T09:08:53.543Z,8.23
2023-02-06T09:11:17.465Z,6.87
2023-02-06T09:13:39.419Z,7.43
2023-02-06T09:16:00.971Z,6.97
2023-02-06T09:18:22.426Z,7.13
2023-02-06T09:20:46.075Z,6.87
2023-02-06T09:23:07.556Z,7.03
2023-02-06T09:25:28.975Z,6.97
2023-02-06T09:27:50.436Z,6.40
2023-02-06T09:30:13.843Z,5.67
2023-02-06T09:32:35.321Z,6.13
2023-02-06T09:34:56.869Z,6.00
2023-02-06T09:37:18.341Z,7.53
2023-02-06T09:39:39.827Z,6.10
2023-02-06T09:42:16.312Z,5.20
2023-02-06T09:44:46.196Z,5.87
2023-02-06T09:47:31.313Z,6.30
2023-02-06T09:49:58.588Z,4.50
2023-02-06T09:52:47.973Z,6.00
2023-02-06T09:55:32.593Z,7.70
2023-02-06T09:58:16.249Z,5.17
2023-02-06T10:00:56.928Z,4.70
2023-02-06T10:03:50.938Z,5.47
2023-02-06T10:06:27.102Z,5.10
2023-02-06T10:08:59.478Z,5.00
2023-02-06T10:11:37.258Z,5.70
2023-02-06T10:14:02.465Z,5.60
2023-02-06T10:16:33.011Z,5.10
2023-02-06T10:19:01.057Z,5.23
2023-02-06T10:21:25.184Z,4.30
2023-02-06T10:23:55.321Z,12.20
2023-02-06T10:26:18.395Z,6.63
2023-02-06T10:28:40.749Z,6.93
2023-02-06T10:31:13.901Z,28.93
2023-02-06T10:34:03.758Z,16.43
2023-02-06T10:36:40.107Z,13.03
2023-02-06T10:39:20.900Z,5.23
2023-02-06T10:42:14.637Z,6.53
2023-02-06T10:45:17.100Z,9.17
2023-02-06T10:47:50.823Z,7.53
2023-02-06T10:50:25.633Z,5.43
2023-02-06T10:52:48.151Z,4.43
2023-02-06T10:55:23.363Z,4.83
2023-02-06T10:57:47.280Z,5.03
2023-02-06T11:00:24.880Z,3.67
2023-02-06T11:03:06.164Z,4.50
2023-02-06T11:05:30.832Z,4.70
2023-02-06T11:07:55.330Z,4.27
2023-02-06T11:10:22.422Z,3.90
2023-02-06T11:12:49.341Z,4.57
2023-02-06T11:15:27.657Z,3.70
2023-02-06T11:17:51.445Z,4.40
2023-02-06T11:20:21.813Z,4.57
2023-02-06T11:22:52.381Z,5.30
2023-02-06T11:25:25.494Z,4.97
2023-02-06T11:27:47.296Z,4.67
2023-02-06T11:30:23.675Z,4.90
2023-02-06T11:32:59.047Z,4.80
2023-02-06T11:35:35.113Z,4.10
2023-02-06T11:38:07.989Z,4.17
2023-02-06T11:40:29.683Z,4.40
2023-02-06T11:43:06.856Z,4.50
2023-02-06T11:45:33.138Z,4.40
2023-02-06T11:47:54.667Z,5.23
2023-02-06T11:50:34.133Z,5.00
2023-02-06T11:53:25.109Z,4.90
2023-02-06T11:55:59.091Z,4.60
2023-02-06T11:58:24.716Z,4.90
2023-02-06T12:00:51.871Z,4.90
2023-02-06T12:03:55.180Z,4.30
2023-02-06T12:06:36.870Z,4.67
2023-02-06T12:09:05.570Z,5.03
2023-02-06T12:11:32.940Z,4.50
2023-02-06T12:14:04.921Z,4.40
2023-02-06T12:16:27.718Z,4.80
2023-02-06T12:18:54.028Z,4.60
2023-02-06T12:21:24.579Z,4.43
2023-02-06T12:23:58.049Z,4.53
2023-02-06T12:26:23.110Z,4.83
2023-02-06T12:29:22.706Z,5.30
2023-02-06T12:31:59.281Z,3.93
2023-02-06T12:34:25.565Z,4.53
2023-02-06T12:37:00.081Z,3.80
2023-02-06T12:39:23.153Z,4.33
2023-02-06T12:42:22.275Z,4.73
2023-02-06T12:44:53.710Z,3.67
2023-02-06T12:47:40.839Z,3.97
2023-02-06T12:50:15.302Z,3.67
2023-02-06T12:52:44.787Z,4.03
2023-02-06T12:55:12.293Z,4.53
2023-02-06T12:57:35.410Z,3.70
2023-02-06T13:00:15.407Z,3.73
2023-02-06T13:02:58.851Z,3.83
2023-02-06T13:05:22.730Z,3.40
2023-02-06T13:07:49.325Z,3.50
2023-02-06T13:10:20.971Z,3.40
2023-02-06T13:12:42.446Z,4.37
2023-02-06T13:15:07.208Z,3.47
2023-02-06T13:17:37.887Z,3.73
2023-02-06T13:20:07.187Z,3.77
2023-02-06T13:22:49.401Z,3.37
2023-02-06T13:25:40.305Z,4.00
2023-02-06T13:28:21.850Z,4.57
2023-02-06T13:30:43.405Z,4.67
2023-02-06T13:33:23.725Z,4.90
2023-02-06T13:36:01.115Z,4.80
2023-02-06T13:38:22.497Z,4.57
2023-02-06T13:40:44.014Z,5.10
2023-02-06T13:43:10.041Z,5.30
2023-02-06T13:45:41.645Z,5.37
2023-02-06T13:48:28.403Z,5.50
2023-02-06T13:51:28.072Z,4.47
2023-02-06T13:54:09.362Z,5.80
2023-02-06T13:57:00.756Z,6.50
2023-02-06T13:59:29.195Z,4.97
2023-02-06T14:01:51.531Z,5.37
2023-02-06T14:04:25.067Z,5.27
2023-02-06T14:07:02.250Z,5.73
2023-02-06T14:09:33.112Z,5.97
2023-02-06T14:12:33.038Z,5.73
2023-02-06T14:15:11.325Z,9.87
2023-02-06T14:18:03.512Z,7.97
2023-02-06T14:20:34.638Z,7.10
2023-02-06T14:23:27.287Z,6.73
2023-02-06T14:25:52.707Z,7.07
2023-02-06T14:28:26.793Z,7.00
2023-02-06T14:31:12.818Z,7.77
2023-02-06T14:33:43.126Z,6.73
2023-02-06T14:36:33.591Z,7.13
2023-02-06T14:39:04.333Z,7.97
2023-02-06T14:41:30.078Z,7.90
2023-02-06T14:43:51.737Z,7.23
2023-02-06T14:46:16.791Z,8.17
2023-02-06T14:48:49.534Z,7.90
2023-02-06T14:51:39.294Z,8.87
2023-02-06T14:54:06.712Z,8.83
2023-02-06T14:56:34.236Z,8.83
2023-02-06T14:58:56.230Z,8.03
2023-02-06T15:01:17.641Z,8.63
2023-02-06T15:03:40.234Z,7.40
2023-02-06T15:06:05.881Z,7.47
2023-02-06T15:08:27.349Z,7.23
2023-02-06T15:10:57.556Z,6.87
2023-02-06T15:13:24.205Z,7.07
2023-02-06T15:15:53.980Z,6.97
2023-02-06T15:18:17.939Z,6.90
2023-02-06T15:20:45.252Z,5.97
2023-02-06T15:23:18.046Z,5.80
2023-02-06T15:26:05.604Z,7.07
2023-02-06T15:28:30.973Z,7.17
2023-02-06T15:30:54.869Z,6.47
2023-02-06T15:33:22.678Z,6.33
2023-02-06T15:35:49.573Z,8.73
2023-02-06T15:38:14.258Z,7.03
2023-02-06T15:40:39.157Z,5.97
2023-02-06T15:43:02.949Z,5.70
2023-02-06T15:45:31.013Z,7.00
2023-02-06T15:47:54.248Z,6.43
2023-02-06T15:50:19.897Z,6.13
2023-02-06T15:52:43.025Z,5.63
2023-02-06T15:55:04.978Z,4.30
2023-02-06T15:57:31.461Z,5.27
2023-02-06T15:59:54.164Z,6.73
2023-02-06T16:02:33.170Z,10.50
2023-02-06T16:04:54.994Z,5.90
2023-02-06T16:07:19.785Z,4.67
2023-02-06T16:09:50.183Z,6.40
2023-02-06T16:12:16.432Z,7.43
2023-02-06T16:14:41.195Z,6.70
2023-02-06T16:17:05.487Z,8.00
2023-02-06T16:19:38.316Z,6.20
2023-02-06T16:22:15.213Z,4.37
2023-02-06T16:24:36.880Z,5.27
2023-02-06T16:27:08.390Z,5.57
2023-02-06T16:29:32.497Z,4.87
2023-02-06T16:32:18.086Z,5.10
2023-02-06T16:34:43.827Z,5.40
2023-02-06T16:37:12.010Z,6.17
2023-02-06T16:39:33.426Z,6.27
2023-02-06T16:41:54.934Z,5.80
2023-02-06T16:44:17.136Z,4.57
2023-02-06T16:46:38.974Z,4.70
2023-02-06T16:49:00.484Z,5.27
2023-02-06T16:51:25.737Z,5.10
2023-02-06T16:53:48.610Z,4.60
2023-02-06T16:56:12.925Z,6.13
2023-02-06T16:58:36.014Z,5.87
2023-02-06T17:00:58.074Z,6.80
2023-02-06T17:03:19.576Z,5.87
2023-02-06T17:05:41.696Z,6.20
2023-02-06T17:08:04.009Z,6.37
2023-02-06T17:10:26.414Z,7.90
2023-02-06T17:12:48.290Z,9.00
2023-02-06T17:15:10.357Z,8.43
2023-02-06T17:17:32.126Z,8.97
2023-02-06T17:19:53.910Z,6.97
2023-02-06T17:22:15.689Z,8.83
2023-02-06T17:24:38.443Z,8.00
2023-02-06T17:27:01.539Z,6.50
2023-02-06T17:29:22.970Z,6.50
2023-02-06T17:31:44.417Z,5.33
2023-02-06T17:34:06.251Z,5.80
2023-02-06T17:36:32.405Z,5.37
2023-02-06T17:38:53.857Z,6.30
2023-02-06T17:41:15.279Z,4.97
2023-02-06T17:43:37.496Z,4.73
2023-02-06T17:45:59.066Z,5.57
2023-02-06T17:48:20.596Z,5.73
2023-02-06T17:50:42.416Z,4.77
2023-02-06T17:53:05.907Z,4.70
2023-02-06T17:55:28.347Z,4.30
2023-02-06T17:57:49.971Z,4.27
2023-02-06T18:00:14.711Z,5.37
2023-02-06T18:02:36.761Z,5.03
2023-02-06T18:04:59.903Z,4.40
2023-02-06T18:07:21.642Z,5.17
2023-02-06T18:09:43.129Z,5.00
2023-02-06T18:12:04.718Z,5.77
2023-02-06T18:14:26.311Z,4.23
2023-02-06T18:16:47.951Z,3.93
2023-02-06T18:19:10.493Z,4.23
2023-02-06T18:21:31.967Z,3.73
2023-02-06T18:23:54.365Z,3.30
2023-02-06T18:26:16.275Z,3.50
2023-02-06T18:28:39.325Z,3.83
2023-02-06T18:31:02.197Z,3.30
2023-02-06T18:33:23.925Z,2.70
2023-02-06T18:35:46.575Z,3.37
2023-02-06T18:38:09.959Z,3.47
2023-02-06T18:40:32.940Z,3.03
2023-02-06T18:42:54.696Z,2.53
2023-02-06T18:45:17.022Z,2.70
2023-02-06T18:47:40.049Z,2.33
2023-02-06T18:50:01.631Z,2.50
2023-02-06T18:52:23.219Z,2.50
2023-02-06T18:54:45.138Z,2.33
2023-02-06T18:57:07.058Z,2.80
2023-02-06T18:59:28.655Z,2.93
2023-02-06T19:01:51.957Z,2.60
2023-02-06T19:04:13.784Z,2.90
2023-02-06T19:06:36.609Z,2.70
2023-02-06T19:08:59.018Z,3.63
2023-02-06T19:11:20.456Z,3.13
2023-02-06T19:13:42.779Z,2.80
2023-02-06T19:16:12.082Z,2.70
2023-02-06T19:18:38.691Z,3.43
2023-02-06T19:21:06.491Z,3.37
2023-02-06T19:23:27.968Z,3.57
2023-02-06T19:25:49.379Z,3.50
2023-02-06T19:28:10.876Z,3.50
2023-02-06T19:30:32.439Z,3.77
2023-02-06T19:32:53.942Z,3.53
2023-02-06T19:35:17.195Z,3.33
2023-02-06T19:37:38.787Z,4.17
2023-02-06T19:40:00.246Z,4.07
2023-02-06T19:42:21.671Z,3.67
2023-02-06T19:44:43.470Z,3.40
2023-02-06T19:47:05.034Z,2.90
2023-02-06T19:49:26.974Z,2.93
2023-02-06T19:51:49.012Z,3.47
2023-02-06T19:54:10.538Z,3.30
2023-02-06T19:56:38.318Z,2.27
2023-02-06T19:59:01.836Z,3.57
2023-02-06T20:01:24.508Z,3.57
2023-02-06T20:03:46.573Z,4.30
2023-02-06T20:06:10.847Z,4.10
2023-02-06T20:08:33.270Z,4.70
2023-02-06T20:10:55.512Z,3.93
2023-02-06T20:13:17.049Z,3.50
2023-02-06T20:15:39.163Z,3.57
2023-02-06T20:18:00.589Z,2.40
2023-02-06T20:20:22.119Z,2.57
2023-02-06T20:22:43.551Z,2.50
2023-02-06T20:25:05.335Z,2.90
2023-02-06T20:27:26.826Z,2.97
2023-02-06T20:29:48.274Z,3.03
2023-02-06T20:32:11.036Z,2.90
2023-02-06T20:34:33.392Z,2.73
2023-02-06T20:36:55.612Z,2.57
2023-02-06T20:39:17.704Z,3.63
2023-02-06T20:41:40.244Z,3.63
2023-02-06T20:44:02.354Z,3.60
2023-02-06T20:46:25.148Z,3.90
2023-02-06T20:48:52.069Z,3.70
2023-02-06T20:51:14.707Z,3.00
2023-02-06T20:53:36.169Z,3.20
2023-02-06T20:55:58.165Z,2.93
2023-02-06T20:58:20.306Z,3.03
2023-02-06T21:00:41.756Z,2.90
2023-02-06T21:03:03.803Z,3.00
2023-02-06T21:05:25.912Z,2.77
2023-02-06T21:07:47.393Z,3.50
2023-02-06T21:10:09.229Z,3.00
2023-02-06T21:12:30.680Z,4.10
2023-02-06T21:14:52.160Z,3.40
2023-02-06T21:17:13.593Z,3.63
2023-02-06T21:19:35.968Z,3.50
2023-02-06T21:21:57.468Z,3.90
2023-02-06T21:24:19.031Z,4.43
2023-02-06T21:26:40.550Z,4.10
2023-02-06T21:29:06.028Z,4.73
2023-02-06T21:31:38.133Z,3.80
2023-02-06T21:34:09.051Z,4.30
2023-02-06T21:36:31.620Z,4.33
2023-02-06T21:38:53.054Z,5.10
2023-02-06T21:41:17.901Z,4.63
2023-02-06T21:43:39.996Z,5.30
2023-02-06T21:46:02.377Z,4.40
2023-02-06T21:48:23.853Z,4.20
2023-02-06T21:50:45.375Z,4.47
2023-02-06T21:53:08.959Z,4.00
2023-02-06T21:55:32.501Z,3.30
2023-02-06T21:57:53.946Z,3.83
2023-02-06T22:00:15.787Z,3.30
2023-02-06T22:02:37.671Z,3.60
2023-02-06T22:05:00.226Z,3.87
2023-02-06T22:07:21.634Z,4.03
2023-02-06T22:09:43.298Z,3.70
2023-02-06T22:12:07.113Z,4.60
2023-02-06T22:14:28.685Z,3.97
2023-02-06T22:16:50.260Z,5.37
2023-02-06T22:19:11.807Z,4.47
2023-02-06T22:21:34.322Z,4.70
2023-02-06T22:23:58.407Z,4.90
2023-02-06T22:26:20.981Z,5.03
2023-02-06T22:28:43.504Z,5.23
2023-02-06T22:31:13.190Z,6.67
2023-02-06T22:33:35.142Z,6.50
2023-02-06T22:35:56.646Z,6.43
2023-02-06T22:38:18.122Z,7.40
2023-02-06T22:40:39.613Z,7.50
2023-02-06T22:43:01.055Z,7.93
2023-02-06T22:45:22.496Z,8.10
2023-02-06T22:47:43.948Z,8.23
2023-02-06T22:50:05.786Z,7.93
2023-02-06T22:52:46.051Z,7.57
2023-02-06T22:55:09.448Z,6.97
2023-02-06T22:57:30.975Z,7.87
2023-02-06T22:59:52.427Z,7.30
2023-02-06T23:02:13.933Z,7.07
2023-02-06T23:04:36.184Z,7.63
2023-02-06T23:06:57.757Z,7.30
2023-02-06T23:09:23.706Z,7.30
2023-02-06T23:11:45.621Z,7.27
2023-02-06T23:14:08.025Z,8.40
2023-02-06T23:16:31.680Z,7.40
2023-02-06T23:18:53.222Z,7.83
2023-02-06T23:21:16.277Z,7.70
2023-02-06T23:23:39.090Z,7.70
2023-02-06T23:26:00.671Z,7.23
2023-02-06T23:28:23.401Z,8.10
2023-02-06T23:30:44.896Z,7.57
2023-02-06T23:33:06.538Z,7.70
2023-02-06T23:35:28.024Z,7.77
2023-02-06T23:37:49.513Z,8.07
2023-02-06T23:40:11.128Z,7.50
2023-02-06T23:42:32.670Z,7.90
2023-02-06T23:44:54.884Z,7.77
2023-02-06T23:47:17.182Z,8.40
2023-02-06T23:49:38.608Z,8.17
2023-02-06T23:52:00.092Z,7.97
2023-02-06T23:54:21.571Z,7.47
2023-02-06T23:56:43.214Z,7.60
2023-02-06T23:59:05.358Z,7.80
